SHT weather

Shepparton Airport
Victoria, Australia

Public forecast

Using degrees Celsius for public forecast. Weather courtesy of forecast.io.

METAR (pilot weather report)

Closest report is Wangaratta Airport, 44.2 nm (81.8 km) E. Retrieved 2019/02/17 21:00 UTC (54 minutes ago):

YWGT 172100Z AUTO 32003KT 9999 // NCD 20/11 Q1008

TAF (pilot weather forecast)

Closest forecast is Wangaratta Airport, 44.2 nm (81.8 km) E. Retrieved 2019/02/17 19:00 UTC (3 hours ago):

TAF YWGT 171810Z 1719/1808 VRB05KT CAVOK